sensor_id;sensor_type;location;lat;lon;timestamp;P1;durP1;ratioP1;P2;durP2;ratioP2
30707;SDS011;17458;48.958;8.284;2022-12-11T00:00:23;37.30;;;20.73;;
30707;SDS011;17458;48.958;8.284;2022-12-11T00:03:08;31.43;;;20.40;;
30707;SDS011;17458;48.958;8.284;2022-12-11T00:05:51;35.20;;;20.73;;
30707;SDS011;17458;48.958;8.284;2022-12-11T00:08:36;31.50;;;19.20;;
30707;SDS011;17458;48.958;8.284;2022-12-11T00:11:20;34.63;;;20.83;;
30707;SDS011;17458;48.958;8.284;2022-12-11T00:14:05;35.13;;;20.00;;
30707;SDS011;17458;48.958;8.284;2022-12-11T00:16:49;34.30;;;20.03;;
30707;SDS011;17458;48.958;8.284;2022-12-11T00:19:33;38.80;;;22.43;;
30707;SDS011;17458;48.958;8.284;2022-12-11T00:22:17;35.73;;;20.80;;
30707;SDS011;17458;48.958;8.284;2022-12-11T00:25:04;31.00;;;20.93;;
30707;SDS011;17458;48.958;8.284;2022-12-11T00:27:48;32.57;;;20.80;;
30707;SDS011;17458;48.958;8.284;2022-12-11T00:30:37;33.73;;;20.27;;
30707;SDS011;17458;48.958;8.284;2022-12-11T00:33:25;35.63;;;21.73;;
30707;SDS011;17458;48.958;8.284;2022-12-11T00:36:11;40.07;;;21.47;;
30707;SDS011;17458;48.958;8.284;2022-12-11T00:38:56;36.63;;;21.00;;
30707;SDS011;17458;48.958;8.284;2022-12-11T00:41:40;36.30;;;22.63;;
30707;SDS011;17458;48.958;8.284;2022-12-11T00:44:24;36.67;;;24.17;;
30707;SDS011;17458;48.958;8.284;2022-12-11T00:47:08;39.53;;;22.30;;
30707;SDS011;17458;48.958;8.284;2022-12-11T00:49:52;35.13;;;21.30;;
30707;SDS011;17458;48.958;8.284;2022-12-11T00:52:36;35.93;;;19.97;;
30707;SDS011;17458;48.958;8.284;2022-12-11T00:55:21;34.70;;;20.30;;
30707;SDS011;17458;48.958;8.284;2022-12-11T00:58:05;34.13;;;21.23;;
30707;SDS011;17458;48.958;8.284;2022-12-11T01:00:50;34.67;;;22.30;;
30707;SDS011;17458;48.958;8.284;2022-12-11T01:03:34;39.50;;;22.00;;
30707;SDS011;17458;48.958;8.284;2022-12-11T01:06:20;37.33;;;21.70;;
30707;SDS011;17458;48.958;8.284;2022-12-11T01:09:07;36.97;;;21.00;;
30707;SDS011;17458;48.958;8.284;2022-12-11T01:12:09;40.07;;;23.23;;
30707;SDS011;17458;48.958;8.284;2022-12-11T01:14:53;46.50;;;23.40;;
30707;SDS011;17458;48.958;8.284;2022-12-11T01:17:38;40.17;;;22.63;;
30707;SDS011;17458;48.958;8.284;2022-12-11T01:20:22;43.70;;;24.00;;
30707;SDS011;17458;48.958;8.284;2022-12-11T01:23:08;49.63;;;23.83;;
30707;SDS011;17458;48.958;8.284;2022-12-11T01:25:54;37.03;;;23.17;;
30707;SDS011;17458;48.958;8.284;2022-12-11T01:28:38;46.27;;;25.80;;
30707;SDS011;17458;48.958;8.284;2022-12-11T01:31:22;44.00;;;24.17;;
30707;SDS011;17458;48.958;8.284;2022-12-11T01:34:06;40.60;;;23.17;;
30707;SDS011;17458;48.958;8.284;2022-12-11T01:36:51;42.03;;;24.40;;
30707;SDS011;17458;48.958;8.284;2022-12-11T01:39:35;45.43;;;25.60;;
30707;SDS011;17458;48.958;8.284;2022-12-11T01:42:21;47.47;;;25.00;;
30707;SDS011;17458;48.958;8.284;2022-12-11T01:48:05;53.73;;;27.00;;
30707;SDS011;17458;48.958;8.284;2022-12-11T01:50:53;48.23;;;24.97;;
30707;SDS011;17458;48.958;8.284;2022-12-11T01:53:39;45.33;;;22.90;;
30707;SDS011;17458;48.958;8.284;2022-12-11T01:56:28;56.40;;;29.03;;
30707;SDS011;17458;48.958;8.284;2022-12-11T01:59:16;45.17;;;23.80;;
30707;SDS011;17458;48.958;8.284;2022-12-11T02:02:14;43.93;;;24.60;;
30707;SDS011;17458;48.958;8.284;2022-12-11T02:05:10;45.53;;;25.93;;
30707;SDS011;17458;48.958;8.284;2022-12-11T02:07:55;52.00;;;26.53;;
30707;SDS011;17458;48.958;8.284;2022-12-11T02:10:46;50.03;;;27.70;;
30707;SDS011;17458;48.958;8.284;2022-12-11T02:13:41;55.47;;;28.17;;
30707;SDS011;17458;48.958;8.284;2022-12-11T02:22:52;59.77;;;27.60;;
30707;SDS011;17458;48.958;8.284;2022-12-11T02:25:56;57.67;;;29.27;;
30707;SDS011;17458;48.958;8.284;2022-12-11T02:29:04;58.00;;;28.53;;
30707;SDS011;17458;48.958;8.284;2022-12-11T02:31:56;50.33;;;26.37;;
30707;SDS011;17458;48.958;8.284;2022-12-11T02:34:56;59.67;;;28.40;;
30707;SDS011;17458;48.958;8.284;2022-12-11T02:37:45;52.63;;;26.90;;
30707;SDS011;17458;48.958;8.284;2022-12-11T02:40:31;55.47;;;28.93;;
30707;SDS011;17458;48.958;8.284;2022-12-11T02:43:19;49.83;;;27.47;;
30707;SDS011;17458;48.958;8.284;2022-12-11T02:46:06;54.80;;;26.17;;
30707;SDS011;17458;48.958;8.284;2022-12-11T02:48:50;58.03;;;28.07;;
30707;SDS011;17458;48.958;8.284;2022-12-11T02:51:38;57.53;;;28.00;;
30707;SDS011;17458;48.958;8.284;2022-12-11T02:54:24;55.07;;;26.10;;
30707;SDS011;17458;48.958;8.284;2022-12-11T02:57:18;56.43;;;30.10;;
30707;SDS011;17458;48.958;8.284;2022-12-11T03:00:08;56.20;;;27.13;;
30707;SDS011;17458;48.958;8.284;2022-12-11T03:02:54;56.33;;;28.50;;
30707;SDS011;17458;48.958;8.284;2022-12-11T03:05:39;56.43;;;27.40;;
30707;SDS011;17458;48.958;8.284;2022-12-11T03:08:24;52.73;;;25.67;;
30707;SDS011;17458;48.958;8.284;2022-12-11T03:11:09;55.43;;;28.17;;
30707;SDS011;17458;48.958;8.284;2022-12-11T03:13:54;50.07;;;28.03;;
30707;SDS011;17458;48.958;8.284;2022-12-11T03:16:46;61.60;;;27.97;;
30707;SDS011;17458;48.958;8.284;2022-12-11T03:19:46;52.40;;;25.77;;
30707;SDS011;17458;48.958;8.284;2022-12-11T03:22:39;59.77;;;28.20;;
30707;SDS011;17458;48.958;8.284;2022-12-11T03:25:31;50.50;;;26.90;;
30707;SDS011;17458;48.958;8.284;2022-12-11T03:28:26;54.03;;;26.33;;
30707;SDS011;17458;48.958;8.284;2022-12-11T03:34:40;60.90;;;28.13;;
30707;SDS011;17458;48.958;8.284;2022-12-11T03:37:30;50.37;;;25.23;;
30707;SDS011;17458;48.958;8.284;2022-12-11T03:40:18;59.83;;;29.20;;
30707;SDS011;17458;48.958;8.284;2022-12-11T03:43:04;49.37;;;27.50;;
30707;SDS011;17458;48.958;8.284;2022-12-11T03:45:50;52.80;;;26.93;;
30707;SDS011;17458;48.958;8.284;2022-12-11T03:48:37;48.97;;;26.77;;
30707;SDS011;17458;48.958;8.284;2022-12-11T03:51:24;54.70;;;26.30;;
30707;SDS011;17458;48.958;8.284;2022-12-11T03:54:09;55.50;;;26.90;;
30707;SDS011;17458;48.958;8.284;2022-12-11T03:56:54;54.07;;;27.77;;
30707;SDS011;17458;48.958;8.284;2022-12-11T03:59:40;52.33;;;25.87;;
30707;SDS011;17458;48.958;8.284;2022-12-11T04:02:25;56.17;;;28.87;;
30707;SDS011;17458;48.958;8.284;2022-12-11T04:05:09;53.27;;;26.17;;
30707;SDS011;17458;48.958;8.284;2022-12-11T04:07:54;54.07;;;28.23;;
30707;SDS011;17458;48.958;8.284;2022-12-11T04:10:41;54.17;;;27.17;;
30707;SDS011;17458;48.958;8.284;2022-12-11T04:13:25;44.07;;;25.73;;
30707;SDS011;17458;48.958;8.284;2022-12-11T04:16:09;49.20;;;25.97;;
30707;SDS011;17458;48.958;8.284;2022-12-11T04:18:53;47.80;;;27.43;;
30707;SDS011;17458;48.958;8.284;2022-12-11T04:21:59;45.57;;;25.77;;
30707;SDS011;17458;48.958;8.284;2022-12-11T04:25:03;50.13;;;26.70;;
30707;SDS011;17458;48.958;8.284;2022-12-11T04:27:52;47.83;;;24.00;;
30707;SDS011;17458;48.958;8.284;2022-12-11T04:30:36;49.57;;;26.33;;
30707;SDS011;17458;48.958;8.284;2022-12-11T04:33:20;48.00;;;26.90;;
30707;SDS011;17458;48.958;8.284;2022-12-11T04:36:04;56.60;;;25.20;;
30707;SDS011;17458;48.958;8.284;2022-12-11T04:38:49;54.23;;;26.90;;
30707;SDS011;17458;48.958;8.284;2022-12-11T04:41:33;49.83;;;26.13;;
30707;SDS011;17458;48.958;8.284;2022-12-11T04:44:17;46.57;;;25.47;;
30707;SDS011;17458;48.958;8.284;2022-12-11T04:47:01;55.53;;;28.70;;
30707;SDS011;17458;48.958;8.284;2022-12-11T04:49:45;54.80;;;26.73;;
30707;SDS011;17458;48.958;8.284;2022-12-11T04:52:29;50.80;;;27.00;;
30707;SDS011;17458;48.958;8.284;2022-12-11T04:55:13;50.93;;;26.93;;
30707;SDS011;17458;48.958;8.284;2022-12-11T04:57:57;48.73;;;27.07;;
30707;SDS011;17458;48.958;8.284;2022-12-11T05:00:41;48.40;;;26.50;;
30707;SDS011;17458;48.958;8.284;2022-12-11T05:03:25;46.47;;;25.83;;
30707;SDS011;17458;48.958;8.284;2022-12-11T05:06:09;51.40;;;26.73;;
30707;SDS011;17458;48.958;8.284;2022-12-11T05:08:54;47.40;;;26.63;;
30707;SDS011;17458;48.958;8.284;2022-12-11T05:11:38;47.10;;;26.90;;
30707;SDS011;17458;48.958;8.284;2022-12-11T05:14:21;46.80;;;24.77;;
30707;SDS011;17458;48.958;8.284;2022-12-11T05:17:06;44.67;;;24.43;;
30707;SDS011;17458;48.958;8.284;2022-12-11T05:19:50;49.80;;;25.57;;
30707;SDS011;17458;48.958;8.284;2022-12-11T05:22:34;40.50;;;21.80;;
30707;SDS011;17458;48.958;8.284;2022-12-11T05:25:19;49.70;;;25.40;;
30707;SDS011;17458;48.958;8.284;2022-12-11T05:28:03;47.57;;;26.13;;
30707;SDS011;17458;48.958;8.284;2022-12-11T05:30:47;44.60;;;24.00;;
30707;SDS011;17458;48.958;8.284;2022-12-11T05:33:31;47.77;;;25.20;;
30707;SDS011;17458;48.958;8.284;2022-12-11T05:36:17;49.77;;;26.60;;
30707;SDS011;17458;48.958;8.284;2022-12-11T05:39:06;48.07;;;25.13;;
30707;SDS011;17458;48.958;8.284;2022-12-11T05:41:50;48.37;;;24.90;;
30707;SDS011;17458;48.958;8.284;2022-12-11T05:44:37;43.87;;;23.47;;
30707;SDS011;17458;48.958;8.284;2022-12-11T05:47:21;47.27;;;25.03;;
30707;SDS011;17458;48.958;8.284;2022-12-11T05:50:05;50.03;;;25.17;;
30707;SDS011;17458;48.958;8.284;2022-12-11T05:52:49;41.03;;;24.10;;
30707;SDS011;17458;48.958;8.284;2022-12-11T05:55:33;52.20;;;25.00;;
30707;SDS011;17458;48.958;8.284;2022-12-11T05:58:18;48.03;;;23.77;;
30707;SDS011;17458;48.958;8.284;2022-12-11T06:01:06;52.10;;;24.10;;
30707;SDS011;17458;48.958;8.284;2022-12-11T06:03:55;47.27;;;24.47;;
30707;SDS011;17458;48.958;8.284;2022-12-11T06:06:40;47.00;;;24.27;;
30707;SDS011;17458;48.958;8.284;2022-12-11T06:09:24;45.67;;;22.60;;
30707;SDS011;17458;48.958;8.284;2022-12-11T06:12:08;42.60;;;22.77;;
30707;SDS011;17458;48.958;8.284;2022-12-11T06:14:52;46.47;;;23.77;;
30707;SDS011;17458;48.958;8.284;2022-12-11T06:17:36;46.00;;;24.67;;
30707;SDS011;17458;48.958;8.284;2022-12-11T06:20:19;42.80;;;23.23;;
30707;SDS011;17458;48.958;8.284;2022-12-11T06:23:04;49.13;;;24.47;;
30707;SDS011;17458;48.958;8.284;2022-12-11T06:25:48;49.07;;;26.13;;
30707;SDS011;17458;48.958;8.284;2022-12-11T06:28:32;44.80;;;23.87;;
30707;SDS011;17458;48.958;8.284;2022-12-11T06:31:16;40.63;;;22.17;;
30707;SDS011;17458;48.958;8.284;2022-12-11T06:34:01;41.90;;;23.03;;
30707;SDS011;17458;48.958;8.284;2022-12-11T06:36:45;39.17;;;22.30;;
30707;SDS011;17458;48.958;8.284;2022-12-11T06:39:29;41.90;;;22.20;;
30707;SDS011;17458;48.958;8.284;2022-12-11T06:42:13;38.13;;;24.40;;
30707;SDS011;17458;48.958;8.284;2022-12-11T06:44:59;36.53;;;21.73;;
30707;SDS011;17458;48.958;8.284;2022-12-11T06:47:43;42.47;;;20.83;;
30707;SDS011;17458;48.958;8.284;2022-12-11T06:50:27;37.37;;;22.33;;
30707;SDS011;17458;48.958;8.284;2022-12-11T06:53:12;42.33;;;21.73;;
30707;SDS011;17458;48.958;8.284;2022-12-11T06:56:04;43.57;;;24.23;;
30707;SDS011;17458;48.958;8.284;2022-12-11T06:58:51;43.03;;;22.20;;
30707;SDS011;17458;48.958;8.284;2022-12-11T07:01:35;45.03;;;24.17;;
30707;SDS011;17458;48.958;8.284;2022-12-11T07:04:19;42.20;;;21.87;;
30707;SDS011;17458;48.958;8.284;2022-12-11T07:07:02;46.50;;;25.27;;
30707;SDS011;17458;48.958;8.284;2022-12-11T07:09:46;50.80;;;24.33;;
30707;SDS011;17458;48.958;8.284;2022-12-11T07:12:30;52.00;;;24.23;;
30707;SDS011;17458;48.958;8.284;2022-12-11T07:15:14;42.07;;;21.57;;
30707;SDS011;17458;48.958;8.284;2022-12-11T07:17:58;44.57;;;22.90;;
30707;SDS011;17458;48.958;8.284;2022-12-11T07:20:42;41.67;;;22.30;;
30707;SDS011;17458;48.958;8.284;2022-12-11T07:23:27;50.53;;;25.03;;
30707;SDS011;17458;48.958;8.284;2022-12-11T07:26:12;47.40;;;23.20;;
30707;SDS011;17458;48.958;8.284;2022-12-11T07:28:58;47.43;;;23.53;;
30707;SDS011;17458;48.958;8.284;2022-12-11T07:31:43;53.77;;;25.77;;
30707;SDS011;17458;48.958;8.284;2022-12-11T07:34:27;55.97;;;26.23;;
30707;SDS011;17458;48.958;8.284;2022-12-11T07:37:11;46.47;;;24.23;;
30707;SDS011;17458;48.958;8.284;2022-12-11T07:39:57;44.97;;;23.07;;
30707;SDS011;17458;48.958;8.284;2022-12-11T07:42:41;39.63;;;22.47;;
30707;SDS011;17458;48.958;8.284;2022-12-11T07:45:27;39.63;;;21.30;;
30707;SDS011;17458;48.958;8.284;2022-12-11T07:48:11;49.57;;;24.63;;
30707;SDS011;17458;48.958;8.284;2022-12-11T07:51:06;46.63;;;24.27;;
30707;SDS011;17458;48.958;8.284;2022-12-11T07:53:53;60.80;;;27.10;;
30707;SDS011;17458;48.958;8.284;2022-12-11T07:56:39;46.07;;;25.97;;
30707;SDS011;17458;48.958;8.284;2022-12-11T07:59:22;44.27;;;25.63;;
30707;SDS011;17458;48.958;8.284;2022-12-11T08:02:08;44.67;;;24.40;;
30707;SDS011;17458;48.958;8.284;2022-12-11T08:04:54;44.30;;;26.00;;
30707;SDS011;17458;48.958;8.284;2022-12-11T08:07:39;45.47;;;24.73;;
30707;SDS011;17458;48.958;8.284;2022-12-11T08:10:23;53.00;;;27.87;;
30707;SDS011;17458;48.958;8.284;2022-12-11T08:13:07;52.30;;;25.53;;
30707;SDS011;17458;48.958;8.284;2022-12-11T08:15:51;48.93;;;24.80;;
30707;SDS011;17458;48.958;8.284;2022-12-11T08:18:35;48.40;;;25.00;;
30707;SDS011;17458;48.958;8.284;2022-12-11T08:21:21;52.03;;;26.63;;
30707;SDS011;17458;48.958;8.284;2022-12-11T08:24:07;48.97;;;24.27;;
30707;SDS011;17458;48.958;8.284;2022-12-11T08:26:52;48.63;;;25.60;;
30707;SDS011;17458;48.958;8.284;2022-12-11T08:29:36;43.97;;;23.43;;
30707;SDS011;17458;48.958;8.284;2022-12-11T08:32:20;40.50;;;22.90;;
30707;SDS011;17458;48.958;8.284;2022-12-11T08:35:07;46.93;;;26.10;;
30707;SDS011;17458;48.958;8.284;2022-12-11T08:37:51;45.50;;;23.70;;
30707;SDS011;17458;48.958;8.284;2022-12-11T08:40:35;52.80;;;27.17;;
30707;SDS011;17458;48.958;8.284;2022-12-11T08:43:19;48.13;;;24.70;;
30707;SDS011;17458;48.958;8.284;2022-12-11T08:46:03;45.67;;;24.17;;
30707;SDS011;17458;48.958;8.284;2022-12-11T08:48:48;46.27;;;23.67;;
30707;SDS011;17458;48.958;8.284;2022-12-11T08:51:32;45.53;;;25.37;;
30707;SDS011;17458;48.958;8.284;2022-12-11T08:54:16;43.47;;;23.87;;
30707;SDS011;17458;48.958;8.284;2022-12-11T08:57:00;40.60;;;23.43;;
30707;SDS011;17458;48.958;8.284;2022-12-11T08:59:44;44.00;;;22.47;;
30707;SDS011;17458;48.958;8.284;2022-12-11T09:02:28;41.53;;;22.37;;
30707;SDS011;17458;48.958;8.284;2022-12-11T09:05:15;52.33;;;24.00;;
30707;SDS011;17458;48.958;8.284;2022-12-11T09:07:59;43.27;;;22.70;;
30707;SDS011;17458;48.958;8.284;2022-12-11T09:10:42;51.97;;;22.40;;
30707;SDS011;17458;48.958;8.284;2022-12-11T09:13:26;39.80;;;21.07;;
30707;SDS011;17458;48.958;8.284;2022-12-11T09:16:11;41.63;;;23.20;;
30707;SDS011;17458;48.958;8.284;2022-12-11T09:18:59;47.97;;;23.23;;
30707;SDS011;17458;48.958;8.284;2022-12-11T09:21:43;50.63;;;24.63;;
30707;SDS011;17458;48.958;8.284;2022-12-11T09:24:27;51.07;;;24.03;;
30707;SDS011;17458;48.958;8.284;2022-12-11T09:27:11;50.17;;;26.97;;
30707;SDS011;17458;48.958;8.284;2022-12-11T09:29:55;57.70;;;26.70;;
30707;SDS011;17458;48.958;8.284;2022-12-11T09:32:39;41.37;;;24.20;;
30707;SDS011;17458;48.958;8.284;2022-12-11T09:35:23;37.20;;;22.37;;
30707;SDS011;17458;48.958;8.284;2022-12-11T09:38:07;48.10;;;26.33;;
30707;SDS011;17458;48.958;8.284;2022-12-11T09:40:51;51.13;;;25.33;;
30707;SDS011;17458;48.958;8.284;2022-12-11T09:46:23;48.33;;;23.63;;
30707;SDS011;17458;48.958;8.284;2022-12-11T09:49:21;51.77;;;24.77;;
30707;SDS011;17458;48.958;8.284;2022-12-11T09:52:13;43.47;;;22.53;;
30707;SDS011;17458;48.958;8.284;2022-12-11T09:55:03;45.07;;;23.83;;
30707;SDS011;17458;48.958;8.284;2022-12-11T10:09:51;40.60;;;22.87;;
30707;SDS011;17458;48.958;8.284;2022-12-11T10:18:42;45.33;;;23.53;;
30707;SDS011;17458;48.958;8.284;2022-12-11T10:21:27;45.73;;;21.67;;
30707;SDS011;17458;48.958;8.284;2022-12-11T10:24:32;49.93;;;24.03;;
30707;SDS011;17458;48.958;8.284;2022-12-11T10:27:20;45.20;;;23.60;;
30707;SDS011;17458;48.958;8.284;2022-12-11T10:30:22;50.10;;;25.67;;
30707;SDS011;17458;48.958;8.284;2022-12-11T10:35:54;54.43;;;24.93;;
30707;SDS011;17458;48.958;8.284;2022-12-11T10:38:41;54.97;;;25.80;;
30707;SDS011;17458;48.958;8.284;2022-12-11T10:41:37;42.23;;;23.57;;
30707;SDS011;17458;48.958;8.284;2022-12-11T10:44:27;46.53;;;24.50;;
30707;SDS011;17458;48.958;8.284;2022-12-11T10:47:14;50.13;;;26.07;;
30707;SDS011;17458;48.958;8.284;2022-12-11T10:50:02;49.23;;;24.67;;
30707;SDS011;17458;48.958;8.284;2022-12-11T10:52:50;38.60;;;23.77;;
30707;SDS011;17458;48.958;8.284;2022-12-11T10:55:38;45.13;;;23.53;;
30707;SDS011;17458;48.958;8.284;2022-12-11T10:58:28;52.30;;;26.97;;
30707;SDS011;17458;48.958;8.284;2022-12-11T11:01:18;42.77;;;24.60;;
30707;SDS011;17458;48.958;8.284;2022-12-11T11:04:11;43.63;;;25.20;;
30707;SDS011;17458;48.958;8.284;2022-12-11T11:07:10;45.27;;;24.13;;
30707;SDS011;17458;48.958;8.284;2022-12-11T11:10:13;53.90;;;25.00;;
30707;SDS011;17458;48.958;8.284;2022-12-11T11:13:00;37.57;;;20.43;;
30707;SDS011;17458;48.958;8.284;2022-12-11T11:15:45;41.07;;;22.57;;
30707;SDS011;17458;48.958;8.284;2022-12-11T11:18:30;36.70;;;22.33;;
30707;SDS011;17458;48.958;8.284;2022-12-11T11:21:16;41.33;;;23.93;;
30707;SDS011;17458;48.958;8.284;2022-12-11T11:24:02;54.83;;;26.40;;
30707;SDS011;17458;48.958;8.284;2022-12-11T11:26:47;44.00;;;23.10;;
30707;SDS011;17458;48.958;8.284;2022-12-11T11:29:32;52.10;;;26.03;;
30707;SDS011;17458;48.958;8.284;2022-12-11T11:32:19;42.10;;;24.87;;
30707;SDS011;17458;48.958;8.284;2022-12-11T11:37:59;50.47;;;26.20;;
30707;SDS011;17458;48.958;8.284;2022-12-11T11:46:32;49.92;;;27.25;;
30707;SDS011;17458;48.958;8.284;2022-12-11T11:49:23;43.27;;;23.83;;
30707;SDS011;17458;48.958;8.284;2022-12-11T11:52:20;49.55;;;25.98;;
30707;SDS011;17458;48.958;8.284;2022-12-11T11:55:31;43.57;;;24.97;;
30707;SDS011;17458;48.958;8.284;2022-12-11T11:58:36;42.93;;;24.23;;
30707;SDS011;17458;48.958;8.284;2022-12-11T12:01:27;43.63;;;24.67;;
30707;SDS011;17458;48.958;8.284;2022-12-11T12:04:12;47.70;;;25.23;;
30707;SDS011;17458;48.958;8.284;2022-12-11T12:10:02;38.83;;;22.53;;
30707;SDS011;17458;48.958;8.284;2022-12-11T12:19:54;38.37;;;22.60;;
30707;SDS011;17458;48.958;8.284;2022-12-11T12:22:53;58.73;;;27.47;;
30707;SDS011;17458;48.958;8.284;2022-12-11T12:25:53;37.60;;;23.73;;
30707;SDS011;17458;48.958;8.284;2022-12-11T12:35:24;44.27;;;23.50;;
30707;SDS011;17458;48.958;8.284;2022-12-11T12:41:57;34.15;;;22.05;;
30707;SDS011;17458;48.958;8.284;2022-12-11T12:47:36;38.13;;;21.90;;
30707;SDS011;17458;48.958;8.284;2022-12-11T12:50:23;35.37;;;21.40;;
30707;SDS011;17458;48.958;8.284;2022-12-11T12:53:13;34.27;;;21.40;;
30707;SDS011;17458;48.958;8.284;2022-12-11T12:56:00;35.80;;;21.23;;
30707;SDS011;17458;48.958;8.284;2022-12-11T12:58:47;34.73;;;20.83;;
30707;SDS011;17458;48.958;8.284;2022-12-11T13:01:31;39.43;;;22.77;;
30707;SDS011;17458;48.958;8.284;2022-12-11T13:07:19;37.73;;;22.27;;
30707;SDS011;17458;48.958;8.284;2022-12-11T13:10:26;34.70;;;21.70;;
30707;SDS011;17458;48.958;8.284;2022-12-11T13:13:25;37.63;;;23.70;;
30707;SDS011;17458;48.958;8.284;2022-12-11T13:18:58;32.17;;;21.73;;
30707;SDS011;17458;48.958;8.284;2022-12-11T13:21:43;43.42;;;23.33;;
30707;SDS011;17458;48.958;8.284;2022-12-11T13:27:42;43.70;;;22.83;;
30707;SDS011;17458;48.958;8.284;2022-12-11T13:30:26;38.33;;;21.42;;
30707;SDS011;17458;48.958;8.284;2022-12-11T13:33:15;34.53;;;21.20;;
30707;SDS011;17458;48.958;8.284;2022-12-11T13:36:16;51.93;;;26.67;;
30707;SDS011;17458;48.958;8.284;2022-12-11T13:39:04;38.07;;;21.60;;
30707;SDS011;17458;48.958;8.284;2022-12-11T13:45:53;38.30;;;21.97;;
30707;SDS011;17458;48.958;8.284;2022-12-11T13:48:53;33.67;;;20.23;;
30707;SDS011;17458;48.958;8.284;2022-12-11T13:51:49;60.20;;;31.50;;
30707;SDS011;17458;48.958;8.284;2022-12-11T13:54:35;48.80;;;28.10;;
30707;SDS011;17458;48.958;8.284;2022-12-11T13:57:21;41.63;;;23.67;;
30707;SDS011;17458;48.958;8.284;2022-12-11T14:00:23;38.53;;;21.10;;
30707;SDS011;17458;48.958;8.284;2022-12-11T14:03:12;38.03;;;22.13;;
30707;SDS011;17458;48.958;8.284;2022-12-11T14:05:57;39.03;;;22.43;;
30707;SDS011;17458;48.958;8.284;2022-12-11T14:08:42;34.33;;;21.87;;
30707;SDS011;17458;48.958;8.284;2022-12-11T14:11:33;35.33;;;21.57;;
30707;SDS011;17458;48.958;8.284;2022-12-11T14:14:21;36.23;;;21.00;;
30707;SDS011;17458;48.958;8.284;2022-12-11T14:17:14;31.13;;;19.23;;
30707;SDS011;17458;48.958;8.284;2022-12-11T14:20:05;34.20;;;21.10;;
30707;SDS011;17458;48.958;8.284;2022-12-11T14:25:59;30.57;;;19.30;;
30707;SDS011;17458;48.958;8.284;2022-12-11T14:28:47;32.50;;;19.17;;
30707;SDS011;17458;48.958;8.284;2022-12-11T14:31:33;31.57;;;19.87;;
30707;SDS011;17458;48.958;8.284;2022-12-11T14:34:24;27.83;;;18.47;;
30707;SDS011;17458;48.958;8.284;2022-12-11T14:37:32;40.43;;;21.43;;
30707;SDS011;17458;48.958;8.284;2022-12-11T14:40:21;34.47;;;20.13;;
30707;SDS011;17458;48.958;8.284;2022-12-11T14:43:11;33.03;;;19.10;;
30707;SDS011;17458;48.958;8.284;2022-12-11T14:46:02;32.07;;;19.50;;
30707;SDS011;17458;48.958;8.284;2022-12-11T14:48:58;32.80;;;17.50;;
30707;SDS011;17458;48.958;8.284;2022-12-11T14:51:46;33.90;;;20.30;;
30707;SDS011;17458;48.958;8.284;2022-12-11T14:54:34;32.97;;;19.37;;
30707;SDS011;17458;48.958;8.284;2022-12-11T14:57:25;36.47;;;21.77;;
30707;SDS011;17458;48.958;8.284;2022-12-11T15:00:54;32.90;;;19.87;;
30707;SDS011;17458;48.958;8.284;2022-12-11T15:03:23;39.00;;;21.05;;
30707;SDS011;17458;48.958;8.284;2022-12-11T15:06:28;36.73;;;20.57;;
30707;SDS011;17458;48.958;8.284;2022-12-11T15:09:24;43.53;;;22.87;;
30707;SDS011;17458;48.958;8.284;2022-12-11T15:12:12;39.67;;;22.37;;
30707;SDS011;17458;48.958;8.284;2022-12-11T15:14:59;34.07;;;20.27;;
30707;SDS011;17458;48.958;8.284;2022-12-11T15:17:49;41.50;;;20.10;;
30707;SDS011;17458;48.958;8.284;2022-12-11T15:20:35;35.33;;;21.80;;
30707;SDS011;17458;48.958;8.284;2022-12-11T15:23:20;38.67;;;22.67;;
30707;SDS011;17458;48.958;8.284;2022-12-11T15:26:05;35.47;;;21.47;;
30707;SDS011;17458;48.958;8.284;2022-12-11T15:28:57;33.57;;;19.83;;
30707;SDS011;17458;48.958;8.284;2022-12-11T15:31:43;33.67;;;20.63;;
30707;SDS011;17458;48.958;8.284;2022-12-11T15:37:28;35.27;;;20.33;;
30707;SDS011;17458;48.958;8.284;2022-12-11T15:40:14;37.10;;;20.83;;
30707;SDS011;17458;48.958;8.284;2022-12-11T15:42:59;33.73;;;19.83;;
30707;SDS011;17458;48.958;8.284;2022-12-11T15:45:45;29.45;;;18.58;;
30707;SDS011;17458;48.958;8.284;2022-12-11T15:48:29;33.67;;;18.73;;
30707;SDS011;17458;48.958;8.284;2022-12-11T15:51:14;28.52;;;17.13;;
30707;SDS011;17458;48.958;8.284;2022-12-11T15:54:02;32.53;;;17.83;;
30707;SDS011;17458;48.958;8.284;2022-12-11T15:56:47;28.73;;;18.63;;
30707;SDS011;17458;48.958;8.284;2022-12-11T15:59:32;30.20;;;18.57;;
30707;SDS011;17458;48.958;8.284;2022-12-11T16:02:19;38.37;;;18.80;;
30707;SDS011;17458;48.958;8.284;2022-12-11T16:05:04;32.40;;;19.47;;
30707;SDS011;17458;48.958;8.284;2022-12-11T16:07:48;28.03;;;18.30;;
30707;SDS011;17458;48.958;8.284;2022-12-11T16:10:37;32.00;;;20.10;;
30707;SDS011;17458;48.958;8.284;2022-12-11T16:13:22;36.60;;;22.40;;
30707;SDS011;17458;48.958;8.284;2022-12-11T16:16:10;33.67;;;20.93;;
30707;SDS011;17458;48.958;8.284;2022-12-11T16:18:55;31.97;;;21.50;;
30707;SDS011;17458;48.958;8.284;2022-12-11T16:21:39;35.87;;;21.40;;
30707;SDS011;17458;48.958;8.284;2022-12-11T16:24:23;29.87;;;17.90;;
30707;SDS011;17458;48.958;8.284;2022-12-11T16:27:08;28.83;;;18.50;;
30707;SDS011;17458;48.958;8.284;2022-12-11T16:29:52;31.27;;;19.57;;
30707;SDS011;17458;48.958;8.284;2022-12-11T16:32:37;34.10;;;20.47;;
30707;SDS011;17458;48.958;8.284;2022-12-11T16:35:21;33.00;;;19.60;;
30707;SDS011;17458;48.958;8.284;2022-12-11T16:38:05;28.60;;;18.57;;
30707;SDS011;17458;48.958;8.284;2022-12-11T16:40:58;39.17;;;20.70;;
30707;SDS011;17458;48.958;8.284;2022-12-11T16:43:42;29.30;;;19.30;;
30707;SDS011;17458;48.958;8.284;2022-12-11T16:46:26;35.80;;;19.73;;
30707;SDS011;17458;48.958;8.284;2022-12-11T16:49:10;35.40;;;20.13;;
30707;SDS011;17458;48.958;8.284;2022-12-11T16:51:54;33.70;;;20.83;;
30707;SDS011;17458;48.958;8.284;2022-12-11T16:54:38;36.77;;;20.67;;
30707;SDS011;17458;48.958;8.284;2022-12-11T16:57:23;37.63;;;21.13;;
30707;SDS011;17458;48.958;8.284;2022-12-11T17:00:12;35.07;;;21.30;;
30707;SDS011;17458;48.958;8.284;2022-12-11T17:02:56;39.03;;;21.30;;
30707;SDS011;17458;48.958;8.284;2022-12-11T17:05:41;40.30;;;23.60;;
30707;SDS011;17458;48.958;8.284;2022-12-11T17:08:26;35.80;;;22.87;;
30707;SDS011;17458;48.958;8.284;2022-12-11T17:11:14;36.13;;;22.30;;
30707;SDS011;17458;48.958;8.284;2022-12-11T17:13:59;38.67;;;22.33;;
30707;SDS011;17458;48.958;8.284;2022-12-11T17:16:44;41.87;;;23.83;;
30707;SDS011;17458;48.958;8.284;2022-12-11T17:19:28;41.17;;;22.07;;
30707;SDS011;17458;48.958;8.284;2022-12-11T17:22:11;36.67;;;22.70;;
30707;SDS011;17458;48.958;8.284;2022-12-11T17:24:55;40.33;;;23.30;;
30707;SDS011;17458;48.958;8.284;2022-12-11T17:27:39;54.33;;;26.03;;
30707;SDS011;17458;48.958;8.284;2022-12-11T17:30:23;44.80;;;25.40;;
30707;SDS011;17458;48.958;8.284;2022-12-11T17:33:07;41.17;;;24.73;;
30707;SDS011;17458;48.958;8.284;2022-12-11T17:35:52;40.47;;;22.77;;
30707;SDS011;17458;48.958;8.284;2022-12-11T17:38:36;41.90;;;22.27;;
30707;SDS011;17458;48.958;8.284;2022-12-11T17:41:20;35.53;;;21.87;;
30707;SDS011;17458;48.958;8.284;2022-12-11T17:44:06;42.37;;;23.87;;